createdAt,value
2022-11-18T00:01:57.557Z,1283.13043
2022-11-18T00:06:59.343Z,243.02913
2022-11-18T00:12:01.155Z,219
2022-11-18T00:17:02.790Z,166.38267
2022-11-18T00:22:04.460Z,179.1145
2022-11-18T00:27:06.181Z,429.03937
2022-11-18T00:32:08.055Z,308.49704
2022-11-18T00:37:09.841Z,514.37037
2022-11-18T00:42:11.608Z,553.90099
2022-11-18T00:47:13.235Z,937.54839
2022-11-18T00:52:14.881Z,519.70093
2022-11-18T00:57:16.617Z,436.8
2022-11-18T01:02:18.326Z,336.35669
2022-11-18T01:07:20.098Z,1044
2022-11-18T01:12:21.883Z,1283.13043
2022-11-18T01:17:23.534Z,1523.48718
2022-11-18T01:22:25.145Z,1997.33333
2022-11-18T01:27:26.866Z,1312.88889
2022-11-18T01:32:28.947Z,1344
2022-11-18T01:37:30.667Z,906.5
2022-11-18T01:42:32.308Z,1084.74074
2022-11-18T01:47:33.970Z,1084.74074
2022-11-18T01:52:35.700Z,744
2022-11-18T01:57:37.439Z,380.87943
2022-11-18T02:02:39.257Z,542.05825
2022-11-18T02:07:41.341Z,566.22222
2022-11-18T02:12:43.167Z,1201.14286
2022-11-18T02:17:44.792Z,1410.66667
2022-11-18T02:22:46.456Z,1410.66667
2022-11-18T02:27:48.105Z,1997.33333
2022-11-18T02:32:49.858Z,2622.26087
2022-11-18T02:37:51.504Z,2408
2022-11-18T02:42:53.512Z,2144
2022-11-18T02:47:55.790Z,2144
2022-11-18T02:52:57.510Z,2744
2022-11-18T02:58:00.138Z,3024
2022-11-18T03:03:01.744Z,3186.10526
2022-11-18T03:08:03.447Z,3024
2022-11-18T03:13:05.148Z,3024
2022-11-18T03:18:06.777Z,2068.13793
2022-11-18T03:23:08.624Z,1755.76471
2022-11-18T03:28:10.299Z,1810.66667
2022-11-18T03:33:11.974Z,1655.11111
2022-11-18T03:38:13.850Z,2622.26087
2022-11-18T03:43:15.522Z,3024
2022-11-18T03:48:17.343Z,2622.26087
2022-11-18T03:53:19.142Z,2068.13793
2022-11-18T03:58:20.808Z,1704
2022-11-18T04:03:22.471Z,1565.05263
2022-11-18T04:08:24.563Z,1410.66667
2022-11-18T04:13:26.327Z,1810.66667
2022-11-18T04:18:28.044Z,2510.66667
2022-11-18T04:23:29.927Z,2408
2022-11-18T04:28:31.612Z,2744
2022-11-18T04:33:33.297Z,3567.52941
2022-11-18T04:38:35.365Z,3794
2022-11-18T04:43:37.429Z,3794
2022-11-18T04:48:39.463Z,3794
2022-11-18T04:53:41.220Z,3794
2022-11-18T04:58:45.256Z,3794
2022-11-18T05:03:50.520Z,3794
2022-11-18T05:08:52.783Z,4344
2022-11-18T05:13:54.446Z,3567.52941
2022-11-18T05:18:56.175Z,3366.22222
2022-11-18T05:23:57.847Z,3186.10526
2022-11-18T05:28:59.818Z,2622.26087
2022-11-18T05:34:01.458Z,2877.33333
2022-11-18T05:39:03.128Z,2622.26087
2022-11-18T05:44:05.295Z,2408
2022-11-18T05:49:06.911Z,1997.33333
2022-11-18T05:54:08.612Z,1608.86486
2022-11-18T05:59:10.245Z,970.66667
2022-11-18T06:04:12.009Z,3366.22222
2022-11-18T06:09:13.872Z,3567.52941
2022-11-18T06:14:15.588Z,3567.52941
2022-11-18T06:19:17.518Z,3567.52941
2022-11-18T06:24:19.365Z,4050.66667
2022-11-18T06:29:27.280Z,4050.66667
2022-11-18T06:34:29.724Z,4344
2022-11-18T06:39:31.314Z,4344
2022-11-18T06:44:33.050Z,4050.66667
2022-11-18T06:49:34.943Z,3366.22222
2022-11-18T06:54:36.689Z,3366.22222
2022-11-18T06:59:38.539Z,3567.52941
2022-11-18T07:04:40.282Z,3567.52941
2022-11-18T07:09:42.079Z,3794
2022-11-18T07:14:43.719Z,3794
2022-11-18T07:19:45.459Z,3567.52941
2022-11-18T07:24:47.100Z,3794
2022-11-18T07:29:48.753Z,3794
2022-11-18T07:34:50.545Z,4050.66667
2022-11-18T07:39:52.272Z,3567.52941
2022-11-18T07:44:54.267Z,4682.46154
2022-11-18T07:49:56.003Z,4050.66667
2022-11-18T07:54:57.726Z,4050.66667
2022-11-18T07:59:59.432Z,4344
2022-11-18T08:05:01.401Z,4050.66667
2022-11-18T08:10:03.107Z,4050.66667
2022-11-18T08:15:04.804Z,3567.52941
2022-11-18T08:20:06.561Z,3794
2022-11-18T08:25:08.253Z,3366.22222
2022-11-18T08:30:09.946Z,3794
2022-11-18T08:35:11.677Z,4050.66667
2022-11-18T08:40:13.645Z,3794
2022-11-18T08:45:15.282Z,4050.66667
2022-11-18T08:50:17.255Z,3567.52941
2022-11-18T08:55:19.070Z,3794
2022-11-18T09:00:20.745Z,4050.66667
2022-11-18T09:05:22.413Z,3567.52941
2022-11-18T09:10:24.365Z,3567.52941
2022-11-18T09:15:27.507Z,3567.52941
2022-11-18T09:20:29.165Z,3794
2022-11-18T09:25:30.778Z,4682.46154
2022-11-18T09:30:32.559Z,5077.33333
2022-11-18T09:35:34.911Z,4682.46154
2022-11-18T09:40:37.094Z,5077.33333
2022-11-18T09:45:40.115Z,4344
2022-11-18T09:50:49.466Z,4682.46154
2022-11-18T09:55:52.426Z,4050.66667
2022-11-18T10:00:55.963Z,4050.66667
2022-11-18T10:05:58.102Z,4344
2022-11-18T10:11:00.032Z,4050.66667
2022-11-18T10:16:02.024Z,4344
2022-11-18T10:21:03.895Z,4682.46154
2022-11-18T10:26:05.908Z,4344
2022-11-18T10:31:08.013Z,5077.33333
2022-11-18T10:36:09.941Z,4682.46154
2022-11-18T10:41:11.709Z,4682.46154
2022-11-18T10:46:13.715Z,4682.46154
2022-11-18T10:51:15.391Z,4682.46154
2022-11-18T10:56:17.633Z,4682.46154
2022-11-18T11:01:19.611Z,4344
2022-11-18T11:06:21.452Z,4344
2022-11-18T11:11:23.192Z,4344
2022-11-18T11:16:26.466Z,4682.46154
2022-11-18T11:21:28.637Z,4344
2022-11-18T11:32:02.856Z,3794
2022-11-18T11:37:04.775Z,4050.66667
2022-11-18T11:42:06.496Z,4050.66667
2022-11-18T11:47:08.296Z,4344
2022-11-18T11:52:09.920Z,3794
2022-11-18T11:57:11.665Z,4050.66667
2022-11-18T12:02:13.497Z,4344
2022-11-18T12:07:15.409Z,3366.22222
2022-11-18T12:12:17.347Z,3794
2022-11-18T12:17:19.067Z,3366.22222
2022-11-18T12:22:20.685Z,3794
2022-11-18T12:27:22.468Z,4050.66667
2022-11-18T12:32:24.063Z,4050.66667
2022-11-18T12:37:25.739Z,4050.66667
2022-11-18T12:42:27.539Z,3794
2022-11-18T12:47:29.195Z,3567.52941
2022-11-18T12:52:30.954Z,3794
2022-11-18T12:57:32.573Z,3794
2022-11-18T13:02:34.200Z,3186.10526
2022-11-18T13:07:36.032Z,4344
2022-11-18T13:12:37.768Z,3794
2022-11-18T13:17:39.401Z,3794
2022-11-18T13:22:41.344Z,4050.66667
2022-11-18T13:27:42.998Z,4344
2022-11-18T13:32:44.726Z,4050.66667
2022-11-18T13:37:46.641Z,4682.46154
2022-11-18T13:42:48.389Z,4344
2022-11-18T13:47:50.102Z,4050.66667
2022-11-18T13:52:51.707Z,3794
2022-11-18T13:57:53.413Z,3794
2022-11-18T14:02:55.138Z,4682.46154
2022-11-18T14:07:56.787Z,4682.46154
2022-11-18T14:12:58.436Z,4344
2022-11-18T14:18:00.133Z,4682.46154
2022-11-18T14:23:01.763Z,4682.46154
2022-11-18T14:28:03.605Z,4344
2022-11-18T14:33:05.276Z,3567.52941
2022-11-18T14:38:40.625Z,3567.52941
2022-11-18T14:43:49.681Z,3794
2022-11-18T14:48:51.308Z,4344
2022-11-18T14:53:52.930Z,4682.46154
2022-11-18T14:58:54.542Z,5544
2022-11-18T15:03:56.186Z,4050.66667
2022-11-18T15:08:57.806Z,5077.33333
2022-11-18T15:13:59.491Z,4344
2022-11-18T15:19:01.343Z,3794
2022-11-18T15:24:03.241Z,4344
2022-11-18T15:29:04.866Z,3567.52941
2022-11-18T15:34:07.034Z,3366.22222
2022-11-18T15:39:08.836Z,3366.22222
2022-11-18T15:44:10.496Z,3186.10526
2022-11-18T15:49:12.210Z,3024
2022-11-18T15:54:13.907Z,2744
2022-11-18T15:59:15.685Z,3024
2022-11-18T16:04:17.809Z,3366.22222
2022-11-18T16:09:20.025Z,3794
2022-11-18T16:14:22.420Z,3567.52941
2022-11-18T16:19:24.529Z,3186.10526
2022-11-18T16:24:26.325Z,2877.33333
2022-11-18T16:29:28.028Z,3186.10526
2022-11-18T16:34:29.646Z,3366.22222
2022-11-18T16:39:31.265Z,3567.52941
2022-11-18T16:44:32.850Z,3567.52941
2022-11-18T16:49:34.487Z,3186.10526
2022-11-18T16:54:41.113Z,3366.22222
2022-11-18T16:59:46.421Z,3186.10526
2022-11-18T17:04:48.042Z,3366.22222
2022-11-18T17:09:49.680Z,3366.22222
2022-11-18T17:14:51.317Z,3567.52941
2022-11-18T17:19:52.962Z,3794
2022-11-18T17:24:54.581Z,3366.22222
2022-11-18T17:29:56.292Z,3794
2022-11-18T17:34:57.980Z,3567.52941
2022-11-18T17:39:59.761Z,3186.10526
2022-11-18T17:45:01.367Z,3366.22222
2022-11-18T17:50:03.082Z,2068.13793
2022-11-18T17:55:04.799Z,2622.26087
2022-11-18T18:00:06.420Z,2408
2022-11-18T18:05:08.036Z,3024
2022-11-18T18:10:09.629Z,3366.22222
2022-11-18T18:15:11.223Z,2877.33333
2022-11-18T18:20:12.809Z,3567.52941
2022-11-18T18:25:14.440Z,3794
2022-11-18T18:30:16.092Z,3366.22222
2022-11-18T18:35:17.753Z,3186.10526
2022-11-18T18:40:19.533Z,3186.10526
2022-11-18T18:45:21.287Z,3567.52941
2022-11-18T18:50:28.147Z,3186.10526
2022-11-18T18:55:29.894Z,3186.10526
2022-11-18T19:00:31.561Z,3567.52941
2022-11-18T19:05:53.892Z,3794
2022-11-18T19:11:19.128Z,3794
2022-11-18T19:16:20.807Z,4050.66667
2022-11-18T19:21:22.483Z,4682.46154
2022-11-18T19:26:24.263Z,4344
2022-11-18T19:31:25.900Z,4682.46154
2022-11-18T19:36:27.538Z,4682.46154
2022-11-18T19:41:29.506Z,4050.66667
2022-11-18T19:46:31.884Z,4050.66667
2022-11-18T19:51:33.995Z,4050.66667
2022-11-18T19:56:35.689Z,4344
2022-11-18T20:01:37.485Z,4344
2022-11-18T20:06:39.186Z,4344
2022-11-18T20:11:40.943Z,4050.66667
2022-11-18T20:16:42.554Z,4050.66667
2022-11-18T20:21:44.299Z,4050.66667
2022-11-18T20:26:45.981Z,4682.46154
2022-11-18T20:31:47.614Z,4682.46154
2022-11-18T20:36:49.290Z,4682.46154
2022-11-18T20:41:50.984Z,4682.46154
2022-11-18T20:46:52.591Z,5077.33333
2022-11-18T20:51:54.197Z,5544
2022-11-18T20:56:55.822Z,5544
2022-11-18T21:01:57.477Z,6104
2022-11-18T21:06:59.151Z,6104
2022-11-18T21:12:00.848Z,5544
2022-11-18T21:17:02.664Z,5077.33333
2022-11-18T21:22:04.308Z,5544
2022-11-18T21:27:06.021Z,5077.33333
2022-11-18T21:32:07.650Z,5077.33333
2022-11-18T21:37:09.379Z,5544
2022-11-18T21:42:10.995Z,4344
2022-11-18T21:47:12.791Z,5544
2022-11-18T21:52:14.467Z,4682.46154
2022-11-18T21:57:16.280Z,5544
2022-11-18T22:02:17.928Z,5077.33333
2022-11-18T22:07:19.630Z,6104
2022-11-18T22:12:21.311Z,5077.33333
2022-11-18T22:17:22.999Z,5544
2022-11-18T22:22:24.656Z,5077.33333
2022-11-18T22:27:26.326Z,4682.46154
2022-11-18T22:32:27.984Z,5077.33333
2022-11-18T22:37:29.609Z,5544
2022-11-18T22:42:31.235Z,6104
2022-11-18T22:47:32.924Z,5544
2022-11-18T22:52:34.553Z,5544
2022-11-18T22:57:36.203Z,5077.33333
2022-11-18T23:02:37.852Z,5077.33333
2022-11-18T23:07:39.564Z,5077.33333
2022-11-18T23:12:44.955Z,4050.66667
2022-11-18T23:17:49.399Z,4050.66667
2022-11-18T23:22:51.069Z,2068.13793
2022-11-18T23:27:54.335Z,1044
2022-11-18T23:32:56.165Z,636.13483
2022-11-18T23:37:58.067Z,504
2022-11-18T23:42:59.694Z,628.44444
2022-11-18T23:48:01.300Z,525.13208
2022-11-18T23:53:02.883Z,421.51938
2022-11-18T23:58:04.510Z,560
